createdAt,value
2019-01-27T00:07:34.153Z,97228.59
2019-01-27T00:17:35.025Z,97190.75
2019-01-27T00:27:35.741Z,97192.22
2019-01-27T00:37:36.548Z,97155.75
2019-01-27T00:47:37.324Z,97136.38
2019-01-27T00:57:58.700Z,97101.75
2019-01-27T01:08:06.168Z,97081.02
2019-01-27T01:18:07.115Z,97045.94
2019-01-27T01:28:09.402Z,97015.84
2019-01-27T01:38:16.951Z,97023.31
2019-01-27T01:48:18.064Z,96971.39
2019-01-27T01:58:24.366Z,96972.09
2019-01-27T02:08:24.944Z,96966.31
2019-01-27T02:18:27.722Z,96946.19
2019-01-27T02:28:29.629Z,96913.51
2019-01-27T02:38:36.230Z,96873.17
2019-01-27T02:48:38.951Z,96858.07
2019-01-27T02:58:40.897Z,96817.99
2019-01-27T03:08:41.760Z,96813.00
2019-01-27T03:18:43.712Z,96804.77
2019-01-27T03:28:48.408Z,96786.98
2019-01-27T03:38:53.430Z,96766.39
2019-01-27T03:48:56.270Z,96744.80
2019-01-27T03:58:58.076Z,96720.95
2019-01-27T04:08:58.859Z,96698.91
2019-01-27T04:18:59.719Z,96677.47
2019-01-27T04:29:04.290Z,96656.36
2019-01-27T04:39:09.260Z,96658.47
2019-01-27T04:49:10.171Z,96645.52
2019-01-27T04:59:25.502Z,96628.26
2019-01-27T05:09:26.595Z,96618.20
2019-01-27T05:19:27.673Z,96596.95
2019-01-27T05:29:30.674Z,96574.87
2019-01-27T05:39:33.538Z,96571.86
2019-01-27T05:49:36.079Z,96558.69
2019-01-27T05:59:43.873Z,96539.28
2019-01-27T06:09:46.700Z,96526.53
2019-01-27T06:19:59.622Z,96509.30
2019-01-27T06:30:03.421Z,96504.88
2019-01-27T06:40:06.217Z,96498.62
2019-01-27T06:50:13.752Z,96500.63
2019-01-27T07:00:29.859Z,96484.62
2019-01-27T07:10:30.197Z,96488.20
2019-01-27T07:20:33.046Z,96468.17
2019-01-27T07:30:35.814Z,96452.72
2019-01-27T07:40:38.879Z,96450.92
2019-01-27T07:50:39.882Z,96433.59
2019-01-27T08:00:40.870Z,96452.87
2019-01-27T08:10:49.905Z,96438.36
2019-01-27T08:20:50.596Z,96424.41
2019-01-27T08:30:57.766Z,96407.95
2019-01-27T08:40:56.285Z,96396.91
2019-01-27T08:50:59.239Z,96398.70
2019-01-27T09:01:00.215Z,96403.48
2019-01-27T09:11:01.942Z,96384.84
2019-01-27T09:21:03.750Z,96380.07
2019-01-27T09:31:04.503Z,96371.00
2019-01-27T09:41:05.254Z,96371.80
2019-01-27T09:51:06.091Z,96366.32
2019-01-27T10:01:07.845Z,96365.62
2019-01-27T10:11:08.624Z,96368.11
2019-01-27T10:21:11.421Z,96357.70
2019-01-27T10:31:13.201Z,96364.10
2019-01-27T10:41:15.515Z,96348.06
2019-01-27T10:51:16.393Z,96331.98
2019-01-27T11:01:17.214Z,96321.38
2019-01-27T11:11:19.169Z,96277.62
2019-01-27T11:21:20.029Z,96288.16
2019-01-27T11:31:25.628Z,96288.16
2019-01-27T11:41:28.241Z,96259.39
2019-01-27T11:51:30.039Z,96230.88
2019-01-27T12:01:32.975Z,96209.16
2019-01-27T12:11:38.000Z,96215.25
2019-01-27T12:21:39.814Z,96198.75
2019-01-27T12:31:40.861Z,96201.08
2019-01-27T12:41:53.155Z,96190.15
2019-01-27T12:52:00.549Z,96195.33
2019-01-27T13:01:57.061Z,96179.87
2019-01-27T13:11:59.841Z,96172.63
2019-01-27T13:22:22.087Z,96163.41
2019-01-27T13:32:23.960Z,96152.80
2019-01-27T13:42:24.704Z,96154.86
2019-01-27T13:52:25.517Z,96154.61
2019-01-27T14:02:26.393Z,96132.64
2019-01-27T14:12:27.407Z,96135.50
2019-01-27T14:22:30.449Z,96129.02
2019-01-27T14:32:31.603Z,96129.97
2019-01-27T14:42:32.236Z,96131.84
2019-01-27T14:52:32.905Z,96129.83
2019-01-27T15:02:33.919Z,96126.05
2019-01-27T15:12:35.366Z,96113.73
2019-01-27T15:22:38.451Z,96106.52
2019-01-27T15:32:40.485Z,96112.52
2019-01-27T15:42:41.348Z,96095.48
2019-01-27T15:52:42.136Z,96095.00
2019-01-27T16:02:43.055Z,96097.87
2019-01-27T16:12:44.113Z,96108.25
2019-01-27T16:22:45.921Z,96118.96
2019-01-27T16:32:47.375Z,96122.39
2019-01-27T16:42:50.733Z,96138.16
2019-01-27T16:52:55.546Z,96141.95
2019-01-27T17:02:57.296Z,96149.11
2019-01-27T17:12:58.443Z,96154.57
2019-01-27T17:22:59.341Z,96155.57
2019-01-27T17:33:00.923Z,96181.24
2019-01-27T17:43:01.582Z,96208.44
2019-01-27T17:53:03.117Z,96220.67
2019-01-27T18:03:04.265Z,96278.88
2019-01-27T18:13:05.203Z,96309.17
2019-01-27T18:23:05.942Z,96333.08
2019-01-27T18:33:08.213Z,96355.93
2019-01-27T18:43:09.865Z,96376.95
2019-01-27T18:53:10.604Z,96400.84
2019-01-27T19:03:11.373Z,96422.59
2019-01-27T19:13:12.042Z,96444.66
2019-01-27T19:23:12.735Z,96454.89
2019-01-27T19:43:57.731Z,96487.08
2019-01-27T19:53:58.612Z,96516.39
2019-01-27T20:04:00.768Z,96538.30
2019-01-27T20:14:02.960Z,96550.67
2019-01-27T20:24:03.735Z,96568.67
2019-01-27T20:34:04.673Z,96581.34
2019-01-27T20:44:05.601Z,96593.02
2019-01-27T20:54:06.508Z,96603.92
2019-01-27T21:04:08.164Z,96612.87
2019-01-27T21:14:08.886Z,96609.59
2019-01-27T21:24:22.637Z,96627.84
2019-01-27T21:34:24.115Z,96634.84
2019-01-27T21:44:24.778Z,96637.34
2019-01-27T21:55:05.217Z,96622.10
2019-01-27T22:05:07.013Z,96638.79
2019-01-27T22:15:09.493Z,96640.69
2019-01-27T22:25:12.027Z,96650.69
2019-01-27T22:35:13.134Z,96661.55
2019-01-27T22:45:17.277Z,96658.12
2019-01-27T22:55:18.467Z,96668.20
2019-01-27T23:05:19.967Z,96679.33
2019-01-27T23:15:20.938Z,96703.63
2019-01-27T23:25:21.821Z,96719.85
2019-01-27T23:45:35.518Z,96732.80
2019-01-27T23:55:36.309Z,96731.97
